createdAt,value
2017-12-22T19:03:29.493Z,6.35
2017-12-22T19:04:29.795Z,6.27
2017-12-22T19:06:24.423Z,6.33
2017-12-22T19:07:24.805Z,6.33
2017-12-22T19:09:19.369Z,6.31
2017-12-22T19:10:19.767Z,6.33
2017-12-22T19:12:14.350Z,6.35
2017-12-22T19:13:14.744Z,6.31
2017-12-22T19:15:09.393Z,6.33
2017-12-22T19:16:09.743Z,6.31
2017-12-22T19:18:05.270Z,6.31
2017-12-22T19:19:05.669Z,6.30
2017-12-22T19:20:06.107Z,6.38
2017-12-22T19:21:06.524Z,6.33
2017-12-22T19:22:06.952Z,6.33
2017-12-22T19:23:07.371Z,6.31
2017-12-22T19:24:07.813Z,6.28
2017-12-22T19:25:08.211Z,6.31
2017-12-22T19:26:08.627Z,6.30
2017-12-22T19:27:09.054Z,6.30
2017-12-22T19:28:09.501Z,6.27
2017-12-22T19:29:09.893Z,6.36
2017-12-22T19:30:10.327Z,6.35
2017-12-22T19:31:10.754Z,6.28
2017-12-22T19:32:11.160Z,6.36
2017-12-22T19:33:11.588Z,6.30
2017-12-22T19:34:12.009Z,6.30
2017-12-22T19:35:12.432Z,6.33
2017-12-22T19:36:12.895Z,6.35
2017-12-22T19:37:13.281Z,6.28
2017-12-22T19:38:13.704Z,6.28
2017-12-22T19:39:14.136Z,6.28
2017-12-22T19:40:14.542Z,6.31
2017-12-22T19:41:14.999Z,6.36
2017-12-22T19:42:15.375Z,6.36
2017-12-22T19:43:15.823Z,6.30
2017-12-22T19:44:16.215Z,6.31
2017-12-22T19:45:16.655Z,6.33
2017-12-22T19:46:17.134Z,6.28
2017-12-22T19:47:17.488Z,6.36
2017-12-22T19:48:17.915Z,6.44
2017-12-22T19:49:18.329Z,6.31
2017-12-22T19:50:18.752Z,6.35
2017-12-22T19:51:19.176Z,6.31
2017-12-22T19:52:19.596Z,6.38
2017-12-22T19:53:20.015Z,6.28
2017-12-22T19:54:20.438Z,6.41
2017-12-22T19:55:20.859Z,6.30
2017-12-22T19:56:21.282Z,6.33
2017-12-22T19:57:21.704Z,6.38
2017-12-22T19:58:22.125Z,6.33
2017-12-22T19:59:22.546Z,6.36
2017-12-22T20:00:23.015Z,6.30
2017-12-22T20:01:23.394Z,6.35
2017-12-22T20:02:23.847Z,6.44
2017-12-22T20:03:24.264Z,6.45
2017-12-22T20:04:24.662Z,6.33
2017-12-22T20:05:25.078Z,6.51
2017-12-22T20:06:25.502Z,6.38
2017-12-22T20:07:25.921Z,6.48
2017-12-22T20:08:26.343Z,6.45
2017-12-22T20:09:26.766Z,6.45
2017-12-22T20:10:27.195Z,6.44
2017-12-22T20:11:27.617Z,6.44
2017-12-22T20:12:28.027Z,6.28
2017-12-22T20:13:28.451Z,6.42
2017-12-22T20:14:28.880Z,6.31
2017-12-22T20:15:29.310Z,6.42
2017-12-22T20:16:29.720Z,6.33
2017-12-22T20:17:30.146Z,6.33
2017-12-22T20:18:30.578Z,6.38
2017-12-22T20:19:30.986Z,6.44
2017-12-22T20:20:31.404Z,6.42
2017-12-22T20:21:31.824Z,6.35
2017-12-22T20:22:32.259Z,6.44
2017-12-22T20:23:32.679Z,6.33
2017-12-22T20:24:33.092Z,6.30
2017-12-22T20:25:33.513Z,6.42
2017-12-22T20:26:33.930Z,6.39
2017-12-22T20:27:34.371Z,6.45
2017-12-22T20:28:34.779Z,6.42
2017-12-22T20:29:35.211Z,6.38
2017-12-22T20:30:35.648Z,6.44
2017-12-22T20:31:36.110Z,6.41
2017-12-22T20:32:36.466Z,6.41
2017-12-22T20:33:36.890Z,6.41
2017-12-22T20:34:37.310Z,6.44
2017-12-22T20:35:37.753Z,6.44
2017-12-22T20:36:38.166Z,6.42
2017-12-22T20:37:38.590Z,6.45
2017-12-22T20:38:38.999Z,6.41
2017-12-22T20:39:39.425Z,6.52
2017-12-22T20:40:39.846Z,6.42
2017-12-22T20:41:40.269Z,6.46
2017-12-22T20:42:40.697Z,6.60
2017-12-22T20:43:41.108Z,6.57
2017-12-22T20:44:41.531Z,6.56
2017-12-22T20:45:41.948Z,6.49
2017-12-22T20:46:42.378Z,6.46
2017-12-22T20:47:42.794Z,6.42
2017-12-22T20:48:43.222Z,6.45
2017-12-22T20:49:43.657Z,6.57
2017-12-22T20:50:44.140Z,6.54
2017-12-22T20:51:44.493Z,6.66
2017-12-22T20:52:44.900Z,6.62
2017-12-22T20:53:45.326Z,6.69
2017-12-22T20:54:45.753Z,6.57
2017-12-22T20:55:46.174Z,6.51
2017-12-22T20:56:46.614Z,6.57
2017-12-22T20:57:47.029Z,6.69
2017-12-22T20:58:47.436Z,6.69
2017-12-22T20:59:47.897Z,6.52
2017-12-22T21:00:48.303Z,6.63
2017-12-22T21:01:48.743Z,6.59
2017-12-22T21:02:49.189Z,6.57
2017-12-22T21:03:49.575Z,6.56
2017-12-22T21:04:49.969Z,6.60
2017-12-22T21:05:50.395Z,6.42
2017-12-22T21:06:50.829Z,6.57
2017-12-22T21:07:51.241Z,6.54
2017-12-22T21:08:51.664Z,6.51
2017-12-22T21:09:52.107Z,6.59
2017-12-22T21:10:52.520Z,6.77
2017-12-22T21:11:52.935Z,6.70
2017-12-22T21:12:53.351Z,6.56
2017-12-22T21:13:53.774Z,6.63
2017-12-22T21:14:54.196Z,6.75
2017-12-22T21:15:54.629Z,6.62
2017-12-22T21:16:55.041Z,6.52
2017-12-22T21:17:55.469Z,6.46
2017-12-22T21:18:55.883Z,6.44
2017-12-22T21:19:56.305Z,6.39
2017-12-22T21:20:56.742Z,6.42
2017-12-22T21:21:57.155Z,6.45
2017-12-22T21:22:57.574Z,6.38
2017-12-22T21:23:58.021Z,6.38
2017-12-22T21:24:58.421Z,6.44
2017-12-22T21:25:59.502Z,6.49
2017-12-22T21:26:59.254Z,6.42
2017-12-22T21:27:59.707Z,6.56
2017-12-22T21:29:00.102Z,6.38
2017-12-22T21:30:00.561Z,6.48
2017-12-22T21:31:00.947Z,6.35
2017-12-22T21:32:01.379Z,6.42
2017-12-22T21:33:01.808Z,6.28
2017-12-22T21:34:02.222Z,6.33
2017-12-22T21:35:02.694Z,6.39
2017-12-22T21:36:03.056Z,6.44
2017-12-22T21:37:03.481Z,6.38
2017-12-22T21:38:03.900Z,6.42
2017-12-22T21:39:04.323Z,6.54
2017-12-22T21:40:04.746Z,6.52
2017-12-22T21:41:05.170Z,6.42
2017-12-22T21:42:05.594Z,6.36
2017-12-22T21:43:06.042Z,6.38
2017-12-22T21:44:06.465Z,6.44
2017-12-22T21:45:06.864Z,6.44
2017-12-22T21:46:07.280Z,6.41
2017-12-22T21:47:07.723Z,6.45
2017-12-22T21:48:08.150Z,6.42
2017-12-22T21:49:08.545Z,6.42
2017-12-22T21:50:08.967Z,6.52
2017-12-22T21:51:09.404Z,6.44
2017-12-22T21:52:09.824Z,6.45
2017-12-22T21:53:10.264Z,6.42
2017-12-22T21:54:10.694Z,6.44
2017-12-22T21:55:11.117Z,6.42
2017-12-22T21:56:11.502Z,6.57
2017-12-22T21:57:11.926Z,6.54
2017-12-22T21:58:12.368Z,6.42
2017-12-22T21:59:12.799Z,6.45
2017-12-22T22:00:13.183Z,6.42
2017-12-22T22:01:13.609Z,6.44
2017-12-22T22:02:14.044Z,6.46
2017-12-22T22:03:14.464Z,6.59
2017-12-22T22:04:14.880Z,6.56
2017-12-22T22:05:15.301Z,6.39
2017-12-22T22:06:15.719Z,6.39
2017-12-22T22:07:16.139Z,6.49
2017-12-22T22:08:16.568Z,6.51
2017-12-22T22:09:16.993Z,6.57
2017-12-22T22:10:17.411Z,6.44
2017-12-22T22:11:17.830Z,6.45
2017-12-22T22:12:18.249Z,6.45
2017-12-22T22:13:18.670Z,6.45
2017-12-22T22:14:19.113Z,6.42
2017-12-22T22:15:19.514Z,6.46
2017-12-22T22:16:19.937Z,6.42
2017-12-22T22:17:20.362Z,6.44
2017-12-22T22:18:20.801Z,6.54
2017-12-22T22:19:21.205Z,6.38
2017-12-22T22:20:21.624Z,6.45
2017-12-22T22:21:22.056Z,6.52
2017-12-22T22:22:22.467Z,6.41
2017-12-22T22:23:22.909Z,6.44
2017-12-22T22:24:23.315Z,6.54
2017-12-22T22:25:23.764Z,6.52
2017-12-22T22:26:24.164Z,6.56
2017-12-22T22:27:24.591Z,6.60
2017-12-22T22:28:25.103Z,6.56
2017-12-22T22:29:25.427Z,6.60
2017-12-22T22:30:25.851Z,6.56
2017-12-22T22:31:26.271Z,6.72
2017-12-22T22:32:26.687Z,6.41
2017-12-22T22:33:27.123Z,6.39
2017-12-22T22:34:27.540Z,6.41
2017-12-22T22:35:27.961Z,6.44
2017-12-22T22:36:28.378Z,6.42
2017-12-22T22:37:28.804Z,6.44
2017-12-22T22:38:29.236Z,6.42
2017-12-22T22:39:29.655Z,6.42
2017-12-22T22:40:30.171Z,6.42
2017-12-22T22:41:30.502Z,6.63
2017-12-22T22:42:30.918Z,6.72
2017-12-22T22:43:31.334Z,6.72
2017-12-22T22:44:31.757Z,6.59
2017-12-22T22:45:32.183Z,6.64
2017-12-22T22:46:32.600Z,6.64
2017-12-22T22:47:33.030Z,6.75
2017-12-22T22:48:33.447Z,6.66
2017-12-22T22:49:33.864Z,6.79
2017-12-22T22:50:34.288Z,6.66
2017-12-22T22:51:34.714Z,6.70
2017-12-22T22:52:35.134Z,6.79
2017-12-22T22:53:35.558Z,6.82
2017-12-22T22:54:35.980Z,6.69
2017-12-22T22:55:36.547Z,6.84
2017-12-22T22:56:36.814Z,6.84
2017-12-22T22:57:37.245Z,6.89
2017-12-22T22:58:37.669Z,6.89
2017-12-22T22:59:38.094Z,6.84
2017-12-22T23:00:38.518Z,6.96
2017-12-22T23:01:39.449Z,6.88
2017-12-22T23:02:39.350Z,6.70
2017-12-22T23:03:39.780Z,6.78
2017-12-22T23:04:40.201Z,6.84
2017-12-22T23:05:40.625Z,6.70
2017-12-22T23:06:41.050Z,6.77
2017-12-22T23:07:41.473Z,6.66
2017-12-22T23:08:41.969Z,6.41
2017-12-22T23:09:42.311Z,6.44
2017-12-22T23:10:42.742Z,6.56
2017-12-22T23:11:43.174Z,6.72
2017-12-22T23:12:43.585Z,6.74
2017-12-22T23:13:44.006Z,6.87
2017-12-22T23:14:44.434Z,7.02
2017-12-22T23:15:44.846Z,6.81
2017-12-22T23:16:45.265Z,6.72
2017-12-22T23:17:45.708Z,6.74
2017-12-22T23:18:46.121Z,6.72
2017-12-22T23:19:46.541Z,6.81
2017-12-22T23:20:46.958Z,6.70
2017-12-22T23:21:47.383Z,6.70
2017-12-22T23:22:47.800Z,6.75
2017-12-22T23:23:48.228Z,6.74
2017-12-22T23:24:48.652Z,6.51
2017-12-22T23:25:49.072Z,6.33
2017-12-22T23:26:49.493Z,6.33
2017-12-22T23:27:49.914Z,6.39
2017-12-22T23:28:50.346Z,6.44
2017-12-22T23:29:50.762Z,6.44
2017-12-22T23:30:51.185Z,6.56
2017-12-22T23:31:51.613Z,6.64
2017-12-22T23:32:52.028Z,6.59
2017-12-22T23:33:52.450Z,6.38
2017-12-22T23:34:52.928Z,6.33
2017-12-22T23:35:53.299Z,6.30
2017-12-22T23:36:53.720Z,6.19
2017-12-22T23:37:54.140Z,6.31
2017-12-22T23:38:54.585Z,6.44
2017-12-22T23:39:54.986Z,6.38
2017-12-22T23:40:55.409Z,6.30
2017-12-22T23:41:55.833Z,6.31
2017-12-22T23:42:56.264Z,6.31
2017-12-22T23:43:56.673Z,6.36
2017-12-22T23:44:57.090Z,6.51
2017-12-22T23:45:57.516Z,6.41
2017-12-22T23:46:57.948Z,6.42
2017-12-22T23:47:58.362Z,6.42
2017-12-22T23:48:58.822Z,6.49
2017-12-22T23:49:59.207Z,6.36
2017-12-22T23:50:59.624Z,6.31
2017-12-22T23:52:00.048Z,6.33
2017-12-22T23:53:00.472Z,6.31
2017-12-22T23:54:00.895Z,6.35
2017-12-22T23:55:01.314Z,6.33
2017-12-22T23:56:01.778Z,6.44
2017-12-22T23:57:02.167Z,6.42
2017-12-22T23:58:02.580Z,6.44
2017-12-22T23:59:03.003Z,6.24
